createdAt,value
2023-05-15T00:02:25.562Z,12.10
2023-05-15T00:04:54.851Z,12.10
2023-05-15T00:07:22.832Z,12.10
2023-05-15T00:09:50.585Z,12.10
2023-05-15T00:12:18.370Z,12.00
2023-05-15T00:14:46.100Z,11.90
2023-05-15T00:17:13.909Z,12.10
2023-05-15T00:19:41.714Z,12.00
2023-05-15T00:22:10.918Z,11.80
2023-05-15T00:24:38.728Z,11.80
2023-05-15T00:27:06.909Z,11.80
2023-05-15T00:29:34.680Z,11.70
2023-05-15T00:32:02.479Z,11.60
2023-05-15T00:34:30.275Z,11.60
2023-05-15T00:36:58.066Z,11.70
2023-05-15T00:39:27.292Z,11.70
2023-05-15T00:41:55.922Z,11.70
2023-05-15T00:44:24.564Z,11.80
2023-05-15T00:46:53.975Z,11.80
2023-05-15T00:49:22.807Z,11.70
2023-05-15T00:51:51.855Z,11.70
2023-05-15T00:54:20.062Z,11.60
2023-05-15T00:56:51.525Z,11.60
2023-05-15T00:59:20.289Z,11.50
2023-05-15T01:01:48.109Z,11.50
2023-05-15T01:04:15.874Z,11.50
2023-05-15T01:06:43.719Z,11.50
2023-05-15T01:09:11.966Z,11.60
2023-05-15T01:11:40.511Z,11.60
2023-05-15T01:14:10.175Z,11.50
2023-05-15T01:16:38.781Z,11.50
2023-05-15T01:19:06.786Z,11.40
2023-05-15T01:22:08.079Z,11.40
2023-05-15T01:24:55.720Z,11.50
2023-05-15T01:27:31.321Z,11.50
2023-05-15T01:30:13.192Z,11.40
2023-05-15T01:32:48.052Z,11.30
2023-05-15T01:35:22.222Z,11.30
2023-05-15T01:37:54.674Z,11.30
2023-05-15T01:40:26.156Z,11.40
2023-05-15T01:42:57.376Z,11.50
2023-05-15T01:45:26.234Z,11.40
2023-05-15T01:47:56.694Z,11.40
2023-05-15T01:50:25.944Z,11.40
2023-05-15T01:52:57.393Z,11.40
2023-05-15T01:55:28.521Z,11.40
2023-05-15T01:58:00.793Z,11.30
2023-05-15T02:00:29.485Z,11.40
2023-05-15T02:02:58.632Z,11.50
2023-05-15T02:05:27.375Z,11.50
2023-05-15T02:07:55.737Z,11.60
2023-05-15T02:10:23.863Z,11.60
2023-05-15T02:12:52.036Z,11.60
2023-05-15T02:15:22.974Z,11.60
2023-05-15T02:17:51.152Z,11.60
2023-05-15T02:20:19.045Z,11.60
2023-05-15T02:22:46.858Z,11.60
2023-05-15T02:25:14.662Z,11.50
2023-05-15T02:27:48.831Z,11.40
2023-05-15T02:30:29.469Z,11.40
2023-05-15T02:33:07.893Z,11.40
2023-05-15T02:35:43.153Z,11.40
2023-05-15T02:38:16.938Z,11.50
2023-05-15T02:40:46.745Z,11.40
2023-05-15T02:43:16.528Z,11.30
2023-05-15T02:45:46.751Z,11.30
2023-05-15T02:48:15.560Z,11.30
2023-05-15T02:50:43.951Z,11.30
2023-05-15T02:53:14.373Z,11.30
2023-05-15T02:55:42.355Z,11.30
2023-05-15T02:58:10.570Z,11.30
2023-05-15T03:00:38.342Z,11.30
2023-05-15T03:03:07.439Z,11.30
2023-05-15T03:05:35.200Z,11.30
2023-05-15T03:08:02.989Z,11.30
2023-05-15T03:10:30.783Z,11.50
2023-05-15T03:12:59.191Z,11.40
2023-05-15T03:15:27.322Z,11.30
2023-05-15T03:17:55.452Z,11.20
2023-05-15T03:20:24.633Z,11.10
2023-05-15T03:22:52.616Z,11.00
2023-05-15T03:25:21.096Z,10.90
2023-05-15T03:27:48.919Z,10.90
2023-05-15T03:30:16.700Z,11.00
2023-05-15T03:32:44.550Z,10.90
2023-05-15T03:35:12.536Z,11.00
2023-05-15T03:37:41.667Z,10.90
2023-05-15T03:40:10.233Z,10.80
2023-05-15T03:42:38.006Z,10.90
2023-05-15T03:45:06.723Z,11.00
2023-05-15T03:47:34.565Z,10.90
2023-05-15T03:50:02.375Z,11.00
2023-05-15T03:52:30.189Z,10.90
2023-05-15T03:54:59.348Z,10.70
2023-05-15T03:57:27.366Z,10.50
2023-05-15T03:59:55.269Z,10.50
2023-05-15T04:02:23.103Z,10.40
2023-05-15T04:04:51.598Z,10.60
2023-05-15T04:07:19.414Z,10.50
2023-05-15T04:09:47.215Z,10.50
2023-05-15T04:12:16.352Z,10.60
2023-05-15T04:14:44.141Z,10.50
2023-05-15T04:17:11.931Z,10.50
2023-05-15T04:19:41.137Z,10.40
2023-05-15T04:22:10.256Z,10.40
2023-05-15T04:24:38.029Z,10.30
2023-05-15T04:27:06.883Z,10.40
2023-05-15T04:29:36.123Z,10.50
2023-05-15T04:32:03.980Z,10.40
2023-05-15T04:34:31.787Z,10.40
2023-05-15T04:36:59.596Z,10.30
2023-05-15T04:39:27.434Z,10.30
2023-05-15T04:41:55.679Z,10.40
2023-05-15T04:44:23.437Z,10.60
2023-05-15T04:46:52.550Z,10.80
2023-05-15T04:49:20.309Z,10.90
2023-05-15T04:51:48.100Z,10.90
2023-05-15T04:54:15.847Z,10.80
2023-05-15T04:56:43.602Z,10.90
2023-05-15T04:59:11.393Z,10.60
2023-05-15T05:01:39.236Z,10.70
2023-05-15T05:04:08.477Z,10.60
2023-05-15T05:06:36.368Z,10.70
2023-05-15T05:09:04.578Z,10.70
2023-05-15T05:11:32.372Z,10.70
2023-05-15T05:14:00.168Z,10.80
2023-05-15T05:16:28.227Z,10.80
2023-05-15T05:18:56.113Z,10.80
2023-05-15T05:21:25.206Z,10.90
2023-05-15T05:23:53.032Z,10.90
2023-05-15T05:26:21.006Z,11.00
2023-05-15T05:28:48.884Z,11.20
2023-05-15T05:31:16.731Z,11.20
2023-05-15T05:33:44.650Z,11.30
2023-05-15T05:36:12.482Z,11.20
2023-05-15T05:38:41.782Z,11.10
2023-05-15T05:41:09.664Z,11.20
2023-05-15T05:43:37.472Z,11.20
2023-05-15T05:46:05.363Z,11.20
2023-05-15T05:48:33.147Z,11.30
2023-05-15T05:51:00.899Z,11.20
2023-05-15T05:53:28.707Z,11.30
2023-05-15T05:55:58.056Z,11.40
2023-05-15T05:58:26.452Z,11.40
2023-05-15T06:00:54.541Z,11.50
2023-05-15T06:03:23.984Z,11.70
2023-05-15T06:05:52.888Z,11.90
2023-05-15T06:08:20.835Z,11.80
2023-05-15T06:10:49.009Z,11.80
2023-05-15T06:13:18.128Z,11.90
2023-05-15T06:15:47.354Z,11.90
2023-05-15T06:18:15.432Z,11.90
2023-05-15T06:20:43.314Z,11.90
2023-05-15T06:23:11.164Z,11.90
2023-05-15T06:25:39.063Z,12.10
2023-05-15T06:28:06.842Z,12.10
2023-05-15T06:30:36.019Z,12.10
2023-05-15T06:33:03.893Z,12.20
2023-05-15T06:35:31.633Z,12.20
2023-05-15T06:37:59.468Z,12.20
2023-05-15T06:40:27.458Z,12.30
2023-05-15T06:42:55.471Z,12.30
2023-05-15T06:45:23.381Z,12.30
2023-05-15T06:47:52.669Z,12.40
2023-05-15T06:50:20.659Z,12.30
2023-05-15T06:52:48.599Z,12.30
2023-05-15T06:55:16.423Z,12.40
2023-05-15T06:57:44.207Z,12.40
2023-05-15T07:00:13.256Z,12.50
2023-05-15T07:02:41.110Z,12.60
2023-05-15T07:05:11.527Z,12.70
2023-05-15T07:07:39.608Z,12.80
2023-05-15T07:10:08.796Z,12.70
2023-05-15T07:12:36.609Z,12.80
2023-05-15T07:15:04.717Z,12.80
2023-05-15T07:17:32.882Z,12.90
2023-05-15T07:20:00.763Z,12.90
2023-05-15T07:22:29.992Z,13.00
2023-05-15T07:24:59.168Z,13.10
2023-05-15T07:27:27.548Z,13.10
2023-05-15T07:29:55.337Z,13.20
2023-05-15T07:32:23.127Z,13.20
2023-05-15T07:34:50.887Z,13.30
2023-05-15T07:37:18.657Z,13.30
2023-05-15T07:39:47.790Z,13.40
2023-05-15T07:42:15.737Z,13.30
2023-05-15T07:44:45.396Z,13.50
2023-05-15T07:47:14.364Z,13.70
2023-05-15T07:49:42.142Z,13.90
2023-05-15T07:52:09.965Z,13.90
2023-05-15T07:54:39.428Z,13.90
2023-05-15T07:57:08.689Z,14.00
2023-05-15T07:59:36.722Z,14.10
2023-05-15T08:02:04.814Z,14.00
2023-05-15T08:04:32.577Z,14.00
2023-05-15T08:07:00.389Z,14.00
2023-05-15T08:09:28.184Z,13.90
2023-05-15T08:11:57.651Z,14.00
2023-05-15T08:14:26.799Z,14.20
2023-05-15T08:16:54.594Z,14.30
2023-05-15T08:19:23.796Z,14.60
2023-05-15T08:21:51.804Z,14.80
2023-05-15T08:24:19.570Z,15.10
2023-05-15T08:26:47.318Z,15.40
2023-05-15T08:29:16.740Z,15.50
2023-05-15T08:31:45.962Z,15.70
2023-05-15T08:34:13.842Z,15.80
2023-05-15T08:36:41.645Z,15.90
2023-05-15T08:39:09.919Z,15.90
2023-05-15T08:41:43.628Z,16.00
2023-05-15T08:44:11.679Z,15.90
2023-05-15T08:46:40.119Z,15.90
2023-05-15T08:49:15.656Z,15.80
2023-05-15T08:51:43.576Z,15.80
2023-05-15T08:54:11.984Z,15.70
2023-05-15T08:56:39.862Z,15.60
2023-05-15T08:59:07.842Z,15.60
2023-05-15T09:01:36.899Z,15.60
2023-05-15T09:04:05.537Z,15.50
2023-05-15T09:06:35.362Z,15.50
2023-05-15T09:09:05.271Z,15.50
2023-05-15T09:11:33.610Z,15.50
2023-05-15T09:14:01.528Z,15.60
2023-05-15T09:16:29.365Z,15.70
2023-05-15T09:18:59.928Z,15.80
2023-05-15T09:21:29.110Z,15.90
2023-05-15T09:24:17.826Z,16.00
2023-05-15T09:26:46.018Z,16.10
2023-05-15T09:29:18.834Z,16.10
2023-05-15T09:31:48.141Z,16.10
2023-05-15T09:34:15.960Z,16.10
2023-05-15T09:36:44.937Z,16.10
2023-05-15T09:39:14.100Z,16.10
2023-05-15T09:41:44.627Z,16.20
2023-05-15T09:44:21.847Z,16.20
2023-05-15T09:46:51.330Z,16.30
2023-05-15T09:49:19.783Z,16.50
2023-05-15T09:51:48.597Z,16.70
2023-05-15T09:54:18.659Z,16.80
2023-05-15T09:56:47.724Z,16.80
2023-05-15T09:59:16.936Z,16.90
2023-05-15T10:01:45.929Z,16.90
2023-05-15T10:04:14.782Z,17.00
2023-05-15T10:06:44.132Z,16.90
2023-05-15T10:09:12.994Z,17.00
2023-05-15T10:11:43.652Z,17.10
2023-05-15T10:14:13.314Z,17.20
2023-05-15T10:16:42.124Z,17.40
2023-05-15T10:19:11.464Z,18.00
2023-05-15T10:21:41.341Z,18.70
2023-05-15T10:24:09.828Z,19.30
2023-05-15T10:26:39.497Z,19.90
2023-05-15T10:29:10.960Z,20.20
2023-05-15T10:31:39.885Z,20.50
2023-05-15T10:34:09.139Z,20.60
2023-05-15T10:36:38.553Z,20.70
2023-05-15T10:39:08.699Z,21.00
2023-05-15T10:41:39.080Z,20.90
2023-05-15T10:44:08.415Z,20.80
2023-05-15T10:46:37.112Z,21.30
2023-05-15T10:49:05.487Z,21.60
2023-05-15T10:51:36.104Z,21.80
2023-05-15T10:54:04.591Z,21.70
2023-05-15T10:56:33.691Z,21.80
2023-05-15T10:59:08.612Z,22.20
2023-05-15T11:01:37.537Z,22.60
2023-05-15T11:04:10.883Z,22.80
2023-05-15T11:06:39.565Z,23.10
2023-05-15T11:09:38.794Z,23.20
2023-05-15T11:12:08.696Z,23.30
2023-05-15T11:14:40.059Z,23.30
2023-05-15T11:17:09.677Z,23.30
2023-05-15T11:19:40.888Z,22.80
2023-05-15T11:22:20.035Z,22.60
2023-05-15T11:24:56.565Z,22.50
2023-05-15T11:27:26.102Z,22.30
2023-05-15T11:30:14.113Z,22.30
2023-05-15T11:32:57.049Z,22.10
2023-05-15T11:35:28.246Z,22.30
2023-05-15T11:37:58.128Z,22.50
2023-05-15T11:40:27.641Z,22.70
2023-05-15T11:43:20.052Z,22.60
2023-05-15T11:45:52.711Z,22.50
2023-05-15T11:48:21.537Z,22.00
2023-05-15T11:50:49.569Z,21.60
2023-05-15T11:53:17.964Z,21.40
2023-05-15T11:55:46.256Z,21.20
2023-05-15T11:58:15.491Z,21.00
2023-05-15T12:00:43.702Z,20.80
2023-05-15T12:03:21.651Z,20.60
2023-05-15T12:05:58.253Z,20.30
2023-05-15T12:08:26.662Z,20.40
2023-05-15T12:10:54.516Z,20.40
2023-05-15T12:13:22.333Z,20.50
2023-05-15T12:15:50.108Z,20.80
2023-05-15T12:18:19.218Z,20.80
2023-05-15T12:20:46.978Z,20.80
2023-05-15T12:23:17.721Z,20.50
2023-05-15T12:25:47.146Z,20.40
2023-05-15T12:28:15.765Z,20.30
2023-05-15T12:30:44.337Z,20.20
2023-05-15T12:33:12.636Z,20.00
2023-05-15T12:35:45.704Z,19.80
2023-05-15T12:38:16.568Z,19.90
2023-05-15T12:40:45.403Z,19.90
2023-05-15T12:43:14.632Z,20.00
2023-05-15T12:45:43.123Z,20.10
2023-05-15T12:48:15.827Z,20.00
2023-05-15T12:50:46.296Z,19.90
2023-05-15T12:53:15.488Z,20.10
2023-05-15T12:55:45.615Z,19.90
2023-05-15T12:58:15.021Z,19.80
2023-05-15T13:00:44.937Z,19.80
2023-05-15T13:03:14.146Z,19.60
2023-05-15T13:05:45.940Z,19.40
2023-05-15T13:08:17.580Z,19.60
2023-05-15T13:10:46.539Z,19.70
2023-05-15T13:13:14.634Z,19.60
2023-05-15T13:15:44.861Z,19.60
2023-05-15T13:18:15.305Z,19.60
2023-05-15T13:20:45.745Z,19.60
2023-05-15T13:23:20.455Z,19.60
2023-05-15T13:25:48.826Z,19.40
2023-05-15T13:28:16.779Z,19.40
2023-05-15T13:30:44.673Z,19.40
2023-05-15T13:33:13.580Z,19.40
2023-05-15T13:35:43.244Z,19.30
2023-05-15T13:38:33.395Z,19.40
2023-05-15T13:41:01.293Z,19.40
2023-05-15T13:43:29.076Z,19.30
2023-05-15T13:45:56.993Z,19.40
2023-05-15T13:48:24.794Z,19.60
2023-05-15T13:50:52.573Z,19.40
2023-05-15T13:53:21.266Z,19.50
2023-05-15T13:55:50.517Z,19.50
2023-05-15T13:58:18.306Z,19.50
2023-05-15T14:00:46.202Z,19.40
2023-05-15T14:03:15.225Z,19.30
2023-05-15T14:05:43.384Z,19.20
2023-05-15T14:08:11.386Z,19.10
2023-05-15T14:10:39.198Z,19.00
2023-05-15T14:13:12.149Z,19.00
2023-05-15T14:15:40.157Z,19.00
2023-05-15T14:18:09.873Z,19.00
2023-05-15T14:20:37.844Z,19.10
2023-05-15T14:23:05.622Z,19.10
2023-05-15T14:25:33.391Z,19.20
2023-05-15T14:28:01.152Z,19.30
2023-05-15T14:30:30.274Z,19.30
2023-05-15T14:32:58.176Z,19.30
2023-05-15T14:35:25.984Z,19.30
2023-05-15T14:37:53.745Z,19.30
2023-05-15T14:40:21.559Z,19.40
2023-05-15T14:42:49.354Z,19.40
2023-05-15T14:45:17.134Z,19.40
2023-05-15T14:47:46.282Z,19.10
2023-05-15T14:50:14.119Z,18.80
2023-05-15T14:52:41.894Z,18.50
2023-05-15T14:55:10.730Z,18.40
2023-05-15T14:57:38.752Z,18.20
2023-05-15T15:00:08.400Z,18.00
2023-05-15T15:02:36.348Z,17.80
2023-05-15T15:05:06.366Z,17.80
2023-05-15T15:08:01.535Z,17.70
2023-05-15T15:10:29.915Z,17.50
2023-05-15T15:12:57.927Z,17.30
2023-05-15T15:15:26.361Z,17.30
2023-05-15T15:17:54.345Z,17.20
2023-05-15T15:20:37.401Z,17.30
2023-05-15T15:23:08.766Z,17.30
2023-05-15T15:25:36.617Z,17.40
2023-05-15T15:28:04.816Z,17.40
2023-05-15T15:30:32.702Z,17.60
2023-05-15T15:33:00.895Z,17.60
2023-05-15T15:35:30.297Z,17.60
2023-05-15T15:37:58.062Z,17.70
2023-05-15T15:40:25.931Z,17.80
2023-05-15T15:42:54.282Z,18.10
2023-05-15T15:45:22.223Z,18.00
2023-05-15T15:47:50.102Z,18.10
2023-05-15T15:50:17.972Z,18.00
2023-05-15T15:52:47.267Z,17.90
2023-05-15T15:55:15.134Z,17.80
2023-05-15T15:57:43.038Z,17.80
2023-05-15T16:00:11.716Z,17.80
2023-05-15T16:02:41.229Z,17.70
2023-05-15T16:05:09.791Z,17.70
2023-05-15T16:07:37.612Z,17.70
2023-05-15T16:10:27.297Z,17.60
2023-05-15T16:12:55.173Z,17.60
2023-05-15T16:15:24.088Z,17.50
2023-05-15T16:17:53.748Z,17.60
2023-05-15T16:20:22.226Z,17.60
2023-05-15T16:22:50.189Z,17.70
2023-05-15T16:25:19.332Z,17.60
2023-05-15T16:27:47.136Z,17.60
2023-05-15T16:30:15.455Z,17.50
2023-05-15T16:32:43.350Z,17.50
2023-05-15T16:35:11.140Z,17.50
2023-05-15T16:37:38.971Z,17.60
2023-05-15T16:40:08.421Z,17.60
2023-05-15T16:42:38.758Z,17.30
2023-05-15T16:45:07.841Z,17.30
2023-05-15T16:47:37.241Z,17.20
2023-05-15T16:50:05.723Z,17.20
2023-05-15T16:52:33.558Z,17.00
2023-05-15T16:55:01.387Z,17.00
2023-05-15T16:57:29.178Z,16.90
2023-05-15T16:59:58.447Z,16.80
2023-05-15T17:02:26.316Z,16.80
2023-05-15T17:04:54.199Z,16.80
2023-05-15T17:07:21.993Z,16.80
2023-05-15T17:09:49.772Z,16.70
2023-05-15T17:12:17.520Z,16.80
2023-05-15T17:14:45.274Z,16.80
2023-05-15T17:17:14.353Z,16.80
2023-05-15T17:19:42.160Z,16.80
2023-05-15T17:22:10.053Z,16.80
2023-05-15T17:24:49.925Z,16.80
2023-05-15T17:27:19.851Z,16.80
2023-05-15T17:29:47.899Z,16.80
2023-05-15T17:32:17.585Z,16.80
2023-05-15T17:34:46.127Z,16.70
2023-05-15T17:37:14.620Z,16.70
2023-05-15T17:39:42.495Z,16.60
2023-05-15T17:42:10.602Z,16.60
2023-05-15T17:44:38.439Z,16.60
2023-05-15T17:47:06.481Z,16.60
2023-05-15T17:49:35.612Z,16.60
2023-05-15T17:52:03.402Z,16.50
2023-05-15T17:54:31.149Z,16.50
2023-05-15T17:56:58.955Z,16.40
2023-05-15T17:59:26.861Z,16.20
2023-05-15T18:01:55.648Z,16.10
2023-05-15T18:04:23.919Z,16.30
2023-05-15T18:06:53.544Z,16.30
2023-05-15T18:09:23.983Z,16.20
2023-05-15T18:11:52.417Z,16.10
2023-05-15T18:14:20.323Z,16.00
2023-05-15T18:16:48.160Z,15.90
2023-05-15T18:19:16.114Z,15.90
2023-05-15T18:21:43.910Z,15.90
2023-05-15T18:24:12.995Z,15.90
2023-05-15T18:26:40.979Z,15.80
2023-05-15T18:29:08.843Z,15.70
2023-05-15T18:31:37.287Z,15.70
2023-05-15T18:34:05.214Z,15.50
2023-05-15T18:36:33.010Z,15.50
2023-05-15T18:39:02.468Z,15.50
2023-05-15T18:41:31.618Z,15.40
2023-05-15T18:43:59.418Z,15.30
2023-05-15T18:46:28.377Z,15.20
2023-05-15T18:48:56.442Z,15.10
2023-05-15T18:51:24.650Z,15.00
2023-05-15T18:53:52.525Z,14.90
2023-05-15T18:56:21.516Z,15.00
2023-05-15T18:58:51.164Z,14.90
2023-05-15T19:01:19.004Z,14.90
2023-05-15T19:03:46.869Z,14.70
2023-05-15T19:06:19.746Z,14.70
2023-05-15T19:08:48.292Z,14.80
2023-05-15T19:11:16.124Z,14.70
2023-05-15T19:13:43.903Z,14.60
2023-05-15T19:16:13.185Z,14.50
2023-05-15T19:18:41.020Z,14.40
2023-05-15T19:21:08.867Z,14.30
2023-05-15T19:23:36.753Z,14.20
2023-05-15T19:26:04.603Z,14.30
2023-05-15T19:28:32.404Z,14.10
2023-05-15T19:31:00.281Z,14.10
2023-05-15T19:33:29.449Z,14.20
2023-05-15T19:35:57.313Z,14.20
2023-05-15T19:38:25.480Z,14.30
2023-05-15T19:40:53.246Z,14.20
2023-05-15T19:43:21.023Z,14.20
2023-05-15T19:45:48.811Z,14.10
2023-05-15T19:48:16.656Z,14.10
2023-05-15T19:50:46.023Z,14.10
2023-05-15T19:53:13.922Z,14.20
2023-05-15T19:55:41.709Z,14.10
2023-05-15T19:58:09.531Z,14.10
2023-05-15T20:00:37.301Z,14.10
2023-05-15T20:03:05.798Z,14.00
2023-05-15T20:05:33.647Z,14.00
2023-05-15T20:08:02.790Z,14.00
2023-05-15T20:10:30.685Z,13.90
2023-05-15T20:12:58.493Z,14.00
2023-05-15T20:15:29.459Z,13.90
2023-05-15T20:17:57.397Z,13.70
2023-05-15T20:20:25.469Z,13.80
2023-05-15T20:22:53.416Z,13.80
2023-05-15T20:25:24.260Z,13.90
2023-05-15T20:27:56.337Z,14.00
2023-05-15T20:30:24.577Z,13.90
2023-05-15T20:32:52.739Z,13.90
2023-05-15T20:35:20.795Z,13.90
2023-05-15T20:37:48.606Z,13.90
2023-05-15T20:40:16.554Z,13.90
2023-05-15T20:42:45.670Z,13.90
2023-05-15T20:45:13.919Z,14.00
2023-05-15T20:47:41.741Z,14.00
2023-05-15T20:50:10.426Z,14.00
2023-05-15T20:52:38.243Z,13.90
2023-05-15T20:55:08.357Z,13.90
2023-05-15T20:57:36.113Z,13.80
2023-05-15T21:00:06.198Z,13.90
2023-05-15T21:02:34.054Z,13.80
2023-05-15T21:05:01.854Z,13.70
2023-05-15T21:07:29.853Z,13.70
2023-05-15T21:09:57.693Z,13.70
2023-05-15T21:12:25.643Z,13.70
2023-05-15T21:14:53.453Z,13.60
2023-05-15T21:17:22.695Z,13.50
2023-05-15T21:19:50.919Z,13.50
2023-05-15T21:22:18.984Z,13.40
2023-05-15T21:24:46.835Z,13.40
2023-05-15T21:27:14.618Z,13.40
2023-05-15T21:29:42.400Z,13.40
2023-05-15T21:32:10.264Z,13.40
2023-05-15T21:34:39.691Z,13.30
2023-05-15T21:37:07.454Z,13.20
2023-05-15T21:39:35.224Z,13.10
2023-05-15T21:42:03.092Z,13.20
2023-05-15T21:44:30.876Z,13.10
2023-05-15T21:46:58.654Z,13.10
2023-05-15T21:49:26.429Z,13.00
2023-05-15T21:51:55.564Z,13.00
2023-05-15T21:54:23.344Z,12.90
2023-05-15T21:56:51.850Z,13.00
2023-05-15T21:59:19.647Z,12.90
2023-05-15T22:01:48.262Z,12.90
2023-05-15T22:04:16.069Z,12.80
2023-05-15T22:06:44.274Z,12.80
2023-05-15T22:09:13.397Z,12.90
2023-05-15T22:11:41.185Z,12.80
2023-05-15T22:14:09.845Z,12.70
2023-05-15T22:16:37.646Z,12.60
2023-05-15T22:19:05.490Z,12.60
2023-05-15T22:21:33.321Z,12.60
2023-05-15T22:24:04.117Z,12.60
2023-05-15T22:26:34.162Z,12.60
2023-05-15T22:29:01.950Z,12.70
2023-05-15T22:31:29.822Z,12.80
2023-05-15T22:33:57.560Z,12.80
2023-05-15T22:36:25.399Z,13.00
2023-05-15T22:38:53.148Z,12.90
2023-05-15T22:41:21.026Z,12.60
2023-05-15T22:43:50.210Z,12.70
2023-05-15T22:46:18.027Z,12.70
2023-05-15T22:48:45.837Z,12.60
2023-05-15T22:51:15.868Z,12.60
2023-05-15T22:53:43.661Z,12.70
2023-05-15T22:56:11.445Z,12.60
2023-05-15T22:58:39.220Z,12.50
2023-05-15T23:01:08.409Z,12.50
2023-05-15T23:03:36.293Z,12.40
2023-05-15T23:06:04.191Z,12.40
2023-05-15T23:08:31.960Z,12.30
2023-05-15T23:10:59.717Z,12.30
2023-05-15T23:13:27.676Z,12.20
2023-05-15T23:15:55.466Z,12.30
2023-05-15T23:18:24.997Z,12.30
2023-05-15T23:20:52.797Z,12.40
2023-05-15T23:23:20.589Z,12.40
2023-05-15T23:25:48.370Z,12.40
2023-05-15T23:28:16.144Z,12.50
2023-05-15T23:30:44.019Z,12.50
2023-05-15T23:33:11.875Z,12.50
2023-05-15T23:35:41.190Z,12.60
2023-05-15T23:38:08.940Z,12.50
2023-05-15T23:40:36.731Z,12.50
2023-05-15T23:43:04.521Z,12.30
2023-05-15T23:45:32.708Z,12.30
2023-05-15T23:48:00.495Z,12.40
2023-05-15T23:50:28.650Z,12.40
2023-05-15T23:52:57.853Z,12.50
2023-05-15T23:55:25.687Z,12.60
2023-05-15T23:57:53.454Z,12.70
